Time;durP1;ratioP1;P1;durP2;ratioP2;P2;SDS_P1;SDS_P2;PMS_P1;PMS_P2;Temp;Humidity;BMP_temperature;BMP_pressure;BME280_temperature;BME280_humidity;BME280_pressure;Samples;Min_cycle;Max_cycle;Signal;HPM_P1;HPM_P2
2022/09/25 00:01:03;;;;;;;4.87;3.40;;;;;;;8.55;78.38;100408.10;1774599;80;21564;-58
2022/09/25 00:04:10;;;;;;;4.35;3.47;;;;;;;8.50;78.39;100412.69;1775784;79;21210;-57
2022/09/25 00:07:17;;;;;;;5.47;3.52;;;;;;;8.47;78.43;100418.97;1774668;80;21248;-58
2022/09/25 00:10:28;;;;;;;4.60;3.20;;;;;;;8.43;78.45;100408.05;1785183;79;21808;-56
2022/09/25 00:13:30;;;;;;;4.90;3.30;;;;;;;8.40;78.50;100412.46;1766456;80;21181;-56
2022/09/25 00:16:37;;;;;;;7.67;3.62;;;;;;;8.36;78.50;100420.11;1767638;79;21241;-55
2022/09/25 00:19:50;;;;;;;6.83;3.58;;;;;;;8.34;78.52;100418.57;1768440;81;21268;-58
2022/09/25 00:22:58;;;;;;;5.65;3.37;;;;;;;8.31;78.53;100411.55;1768476;81;21173;-57
2022/09/25 00:26:04;;;;;;;5.90;3.58;;;;;;;8.29;78.56;100416.30;1768475;81;21173;-56
2022/09/25 00:29:10;;;;;;;5.47;3.42;;;;;;;8.27;78.58;100418.84;1768392;81;21197;-58
2022/09/25 00:32:17;;;;;;;5.62;3.83;;;;;;;8.23;78.60;100419.67;1768389;81;21209;-57
2022/09/25 00:35:24;;;;;;;5.75;3.75;;;;;;;8.21;78.62;100416.73;1757987;80;21178;-58
2022/09/25 00:38:31;;;;;;;8.43;3.50;;;;;;;8.19;78.67;100416.03;1768432;81;21241;-58
2022/09/25 00:41:37;;;;;;;5.62;3.62;;;;;;;8.16;78.69;100420.45;1768448;81;21272;-57
2022/09/25 00:45:06;;;;;;;5.47;3.83;;;;;;;8.13;78.71;100416.18;1768419;81;21185;-56
2022/09/25 00:48:12;;;;;;;5.58;3.75;;;;;;;8.12;78.74;100413.62;1768399;81;21293;-58
2022/09/25 00:51:18;;;;;;;5.35;3.55;;;;;;;8.11;78.79;100417.34;1768420;81;21229;-56
2022/09/25 00:54:28;;;;;;;6.62;4.00;;;;;;;8.09;78.83;100417.50;1768615;80;21205;-57
2022/09/25 00:57:36;;;;;;;5.90;3.83;;;;;;;8.08;78.85;100421.75;1768474;81;21260;-58
2022/09/25 01:00:42;;;;;;;6.05;3.92;;;;;;;8.06;78.88;100417.81;1768440;81;21169;-57
2022/09/25 01:03:49;;;;;;;6.40;4.15;;;;;;;8.05;78.92;100415.25;1768399;81;21292;-58
2022/09/25 01:06:56;;;;;;;5.28;3.60;;;;;;;8.04;78.96;100418.47;1757958;81;21197;-57
2022/09/25 01:09:58;;;;;;;6.12;3.65;;;;;;;8.02;78.96;100416.94;1768472;80;21201;-57
2022/09/25 01:13:03;;;;;;;6.08;4.15;;;;;;;8.00;78.97;100414.38;1768502;81;21201;-56
2022/09/25 01:16:22;;;;;;;8.48;3.95;;;;;;;8.00;78.99;100415.73;1767153;80;21221;-57
2022/09/25 01:19:35;;;;;;;6.15;4.05;;;;;;;7.98;79.01;100422.34;1758242;81;21241;-59
2022/09/25 01:23:13;;;;;;;5.87;3.98;;;;;;;7.97;79.03;100415.19;1768913;81;21185;-58
2022/09/25 01:26:52;;;;;;;5.55;4.12;;;;;;;7.97;79.05;100419.28;1768508;80;21335;-58
2022/09/25 01:30:13;;;;;;;5.12;3.87;;;;;;;7.94;79.08;100415.51;1768421;81;21218;-57
2022/09/25 01:33:23;;;;;;;7.80;4.10;;;;;;;7.91;79.12;100421.28;1768338;81;21210;-56
2022/09/25 01:36:43;;;;;;;9.65;4.30;;;;;;;7.90;79.15;100421.77;1768463;81;21240;-57
2022/09/25 01:40:10;;;;;;;6.67;4.37;;;;;;;7.88;79.18;100425.16;1769020;80;21268;-56
2022/09/25 01:43:25;;;;;;;5.58;4.08;;;;;;;7.88;79.21;100416.98;1768308;81;21189;-57
2022/09/25 01:46:38;;;;;;;6.72;4.28;;;;;;;7.88;79.24;100428.41;1768909;80;21229;-57
2022/09/25 01:50:01;;;;;;;8.50;4.45;;;;;;;7.86;79.26;100427.20;1761584;80;21192;-54
2022/09/25 01:53:10;;;;;;;5.25;4.05;;;;;;;7.85;79.27;100426.00;1758499;80;21281;-58
2022/09/25 01:56:32;;;;;;;8.05;4.55;;;;;;;7.83;79.28;100427.52;1768648;80;21173;-59
2022/09/25 02:00:01;;;;;;;9.15;4.62;;;;;;;7.82;79.29;100427.69;1759288;81;21387;-55
2022/09/25 02:03:25;;;;;;;7.53;4.50;;;;;;;7.81;79.30;100430.91;1768506;81;21324;-57
2022/09/25 02:06:31;;;;;;;6.60;4.72;;;;;;;7.80;79.32;100428.34;1770194;80;21177;-59
2022/09/25 02:09:44;;;;;;;6.15;4.25;;;;;;;7.78;79.36;100423.05;1768798;80;21237;-57
2022/09/25 02:12:56;;;;;;;7.45;4.50;;;;;;;7.78;79.38;100423.55;1768601;80;21170;-58
2022/09/25 02:16:11;;;;;;;6.80;4.80;;;;;;;7.76;79.40;100431.02;1768494;80;21245;-58
2022/09/25 02:22:44;;;;;;;7.35;4.62;;;;;;;7.74;79.45;100435.26;1768355;81;21170;-58
2022/09/25 02:25:58;;;;;;;7.37;4.85;;;;;;;7.73;79.46;100432.19;1768463;81;21711;-59
2022/09/25 02:29:07;;;;;;;11.03;5.33;;;;;;;7.72;79.46;100432.34;1768367;81;21236;-56
2022/09/25 02:32:20;;;;;;;9.03;4.95;;;;;;;7.70;79.45;100429.78;1768305;81;21199;-57
2022/09/25 02:35:19;;;;;;;7.85;5.10;;;;;;;7.69;79.48;100432.14;1768556;81;21699;-58
2022/09/25 02:38:25;;;;;;;7.28;4.80;;;;;;;7.69;79.49;100442.20;1768366;81;21256;-57
2022/09/25 02:41:53;;;;;;;6.97;4.95;;;;;;;7.69;79.51;100440.84;1768423;81;21253;-56
2022/09/25 02:45:23;;;;;;;9.53;4.37;;;;;;;7.67;79.52;100440.13;1758413;80;21237;-56
2022/09/25 02:48:47;;;;;;;7.58;5.15;;;;;;;7.67;79.52;100444.22;1768440;81;21265;-58
2022/09/25 02:52:06;;;;;;;7.83;5.40;;;;;;;7.65;79.55;100445.73;1768307;81;21202;-58
2022/09/25 02:55:36;;;;;;;9.85;4.83;;;;;;;7.64;79.57;100447.59;1768416;81;21248;-57
2022/09/25 02:58:57;;;;;;;6.97;4.70;;;;;;;7.61;79.60;100447.91;1768510;81;21202;-57
2022/09/25 03:02:04;;;;;;;8.13;5.28;;;;;;;7.61;79.63;100445.19;1768657;81;21165;-56
2022/09/25 03:05:11;;;;;;;7.10;4.83;;;;;;;7.61;79.64;100445.72;1757904;81;21221;-57
2022/09/25 03:08:38;;;;;;;8.03;4.67;;;;;;;7.60;79.65;100453.02;1758397;81;21360;-57
2022/09/25 03:11:44;;;;;;;7.70;4.53;;;;;;;7.58;79.67;100452.31;1768503;81;21225;-57
2022/09/25 03:14:50;;;;;;;9.38;4.70;;;;;;;7.58;79.69;100450.95;1768458;81;21205;-58
2022/09/25 03:17:56;;;;;;;7.80;5.00;;;;;;;7.59;79.73;100453.17;1767890;80;21248;-58
2022/09/25 03:21:03;;;;;;;7.17;4.70;;;;;;;7.59;79.76;100452.65;1768554;81;21154;-58
2022/09/25 03:24:08;;;;;;;6.37;4.37;;;;;;;7.57;79.77;100447.89;1758594;80;21395;-57
2022/09/25 03:27:13;;;;;;;7.30;4.87;;;;;;;7.57;79.79;100454.70;1768487;81;21145;-56
2022/09/25 03:30:20;;;;;;;8.25;5.42;;;;;;;7.57;79.80;100457.42;1768457;81;21196;-58
2022/09/25 03:33:28;;;;;;;7.45;4.85;;;;;;;7.56;79.79;100461.13;1768400;81;21225;-57
2022/09/25 03:36:36;;;;;;;6.95;4.87;;;;;;;7.56;79.81;100467.94;1768394;81;21157;-56
2022/09/25 03:39:43;;;;;;;9.58;5.00;;;;;;;7.55;79.80;100462.16;1768543;81;21331;-57
2022/09/25 03:42:49;;;;;;;6.17;4.95;;;;;;;7.54;79.84;100471.35;1768457;81;21182;-56
2022/09/25 03:45:55;;;;;;;7.20;5.12;;;;;;;7.55;79.83;100465.38;1768575;81;21181;-57
2022/09/25 03:49:00;;;;;;;7.78;4.72;;;;;;;7.55;79.87;100471.69;1768406;81;21165;-57
2022/09/25 03:52:11;;;;;;;8.85;5.05;;;;;;;7.55;79.88;100473.55;1768441;81;21217;-56
2022/09/25 03:55:19;;;;;;;10.68;5.28;;;;;;;7.55;79.89;100465.38;1759238;80;21236;-56
2022/09/25 03:58:24;;;;;;;9.30;5.12;;;;;;;7.56;79.91;100467.11;1758004;81;21201;-57
2022/09/25 04:01:30;;;;;;;12.75;5.03;;;;;;;7.56;79.93;100470.67;1768451;81;21214;-58
2022/09/25 04:04:37;;;;;;;6.25;5.03;;;;;;;7.59;79.96;100474.97;1768405;81;21221;-57
2022/09/25 04:07:44;;;;;;;7.30;4.70;;;;;;;7.60;79.97;100472.09;1737994;82;21201;-58
2022/09/25 04:10:51;;;;;;;6.60;4.37;;;;;;;7.63;79.99;100481.31;1738138;82;21178;-56
2022/09/25 04:13:58;;;;;;;6.17;4.53;;;;;;;7.67;80.03;100479.63;1726620;82;21201;-56
2022/09/25 04:17:03;;;;;;;7.83;5.00;;;;;;;7.69;80.07;100483.07;1738001;82;21189;-55
2022/09/25 04:20:10;;;;;;;5.83;4.42;;;;;;;7.72;80.09;100486.34;1750896;80;21224;-57
2022/09/25 04:23:16;;;;;;;6.40;4.83;;;;;;;7.76;80.13;100486.87;1747272;81;21193;-58
2022/09/25 04:26:23;;;;;;;8.13;5.05;;;;;;;7.79;80.16;100490.64;1723764;83;21827;-59
2022/09/25 04:29:31;;;;;;;7.78;5.22;;;;;;;7.83;80.18;100495.66;1723925;82;21199;-58
2022/09/25 04:36:00;;;;;;;11.05;4.80;;;;;;;7.90;80.23;100492.64;1763442;80;21208;-57
2022/09/25 04:39:06;;;;;;;6.47;4.75;;;;;;;7.93;80.22;100489.59;1759689;81;21243;-57
2022/09/25 04:42:12;;;;;;;6.42;4.60;;;;;;;8.00;80.25;100492.06;1746451;81;21358;-56
2022/09/25 04:45:18;;;;;;;6.53;4.37;;;;;;;8.04;80.25;100489.88;1723867;83;21333;-57
2022/09/25 04:48:25;;;;;;;7.30;4.95;;;;;;;8.10;80.30;100500.15;1723663;83;21211;-58
2022/09/25 04:51:30;;;;;;;7.62;5.25;;;;;;;8.16;80.33;100501.75;1723305;83;21227;-57
2022/09/25 04:54:35;;;;;;;6.62;4.50;;;;;;;8.23;80.37;100503.38;1746522;81;21354;-57
2022/09/25 04:57:42;;;;;;;6.85;4.78;;;;;;;8.29;80.44;100495.39;1746511;81;21301;-56
2022/09/25 05:00:50;;;;;;;5.72;4.03;;;;;;;8.36;80.46;100494.25;1724001;82;21195;-56
2022/09/25 05:03:57;;;;;;;8.50;4.37;;;;;;;8.43;80.48;100498.06;1762038;80;21183;-56
2022/09/25 05:07:05;;;;;;;5.25;3.60;;;;;;;8.51;80.52;100500.85;1746831;81;21264;-55
2022/09/25 05:10:13;;;;;;;5.58;4.12;;;;;;;8.60;80.56;100499.88;1703924;83;21223;-55
2022/09/25 05:13:19;;;;;;;6.22;4.30;;;;;;;8.68;80.62;100508.99;1705608;83;21263;-56
2022/09/25 05:16:29;;;;;;;9.65;4.45;;;;;;;8.77;80.65;100498.46;1723814;82;21168;-57
2022/09/25 05:19:36;;;;;;;6.12;4.10;;;;;;;8.86;80.67;100511.13;1762542;80;21188;-57
2022/09/25 05:22:41;;;;;;;6.12;4.28;;;;;;;8.94;80.70;100508.45;1740869;82;21228;-56
2022/09/25 05:25:46;;;;;;;6.25;3.60;;;;;;;9.01;80.71;100512.75;1710516;84;21196;-56
2022/09/25 05:28:56;;;;;;;5.87;3.92;;;;;;;9.08;80.71;100517.92;1730883;82;21378;-57
2022/09/25 05:32:03;;;;;;;6.40;4.03;;;;;;;9.16;80.73;100517.09;1729245;82;21320;-56
2022/09/25 05:35:13;;;;;;;6.80;3.90;;;;;;;9.22;80.74;100521.90;1746111;82;21193;-57
2022/09/25 05:38:19;;;;;;;6.22;4.33;;;;;;;9.27;80.72;100508.11;1734984;82;21264;-55
2022/09/25 05:41:25;;;;;;;7.67;4.22;;;;;;;9.34;80.71;100513.78;1729078;82;21598;-57
2022/09/25 05:44:31;;;;;;;6.17;4.40;;;;;;;9.37;80.68;100510.17;1745848;82;21251;-57
2022/09/25 05:47:37;;;;;;;6.78;4.25;;;;;;;9.44;80.70;100527.64;1729429;82;21221;-55
2022/09/25 05:50:45;;;;;;;5.90;3.87;;;;;;;9.50;80.70;100521.50;1734929;82;21220;-56
2022/09/25 05:53:53;;;;;;;9.93;4.37;;;;;;;9.57;80.69;100525.80;1746225;82;21213;-55
2022/09/25 05:57:01;;;;;;;5.90;3.75;;;;;;;9.63;80.70;100521.89;1750007;81;21177;-55
2022/09/25 06:00:08;;;;;;;6.35;3.90;;;;;;;9.70;80.72;100527.55;1745960;82;21295;-58
2022/09/25 06:03:15;;;;;;;9.20;4.15;;;;;;;9.79;80.72;100539.71;1747511;80;21224;-56
2022/09/25 06:06:21;;;;;;;7.72;4.53;;;;;;;9.88;80.77;100540.56;1771801;81;21388;-57
2022/09/25 06:09:28;;;;;;;6.62;3.90;;;;;;;9.94;80.77;100535.82;1777257;79;21227;-55
2022/09/25 06:12:38;;;;;;;9.95;4.28;;;;;;;10.02;80.79;100546.24;1776402;80;21187;-58
2022/09/25 06:15:47;;;;;;;6.80;4.20;;;;;;;10.10;80.79;100539.45;1776285;80;21254;-56
2022/09/25 06:18:56;;;;;;;7.47;3.90;;;;;;;10.19;80.81;100533.48;1776214;80;21203;-55
2022/09/25 06:22:02;;;;;;;5.35;3.70;;;;;;;10.29;80.82;100551.97;1771897;80;21373;-57
2022/09/25 06:25:09;;;;;;;5.78;3.58;;;;;;;10.38;80.83;100549.08;1767261;81;21780;-56
2022/09/25 06:28:15;;;;;;;7.67;3.30;;;;;;;10.48;80.84;100550.27;1767531;81;21223;-56
2022/09/25 06:31:20;;;;;;;7.33;3.85;;;;;;;10.58;80.85;100552.84;1758654;80;21717;-59
2022/09/25 06:34:28;;;;;;;7.83;4.05;;;;;;;10.67;80.84;100551.80;1768235;81;21412;-56
2022/09/25 06:37:35;;;;;;;4.42;3.20;;;;;;;10.76;80.86;100548.02;1768499;81;21243;-56
2022/09/25 06:40:41;;;;;;;6.92;3.52;;;;;;;10.86;80.86;100557.74;1768517;81;21183;-56
2022/09/25 06:43:48;;;;;;;4.92;3.33;;;;;;;10.96;80.86;100546.60;1768613;81;21337;-56
2022/09/25 06:46:58;;;;;;;5.50;2.95;;;;;;;11.07;80.87;100552.58;1768499;81;21302;-56
2022/09/25 06:50:05;;;;;;;5.58;3.17;;;;;;;11.16;80.88;100545.20;1768508;81;21352;-57
2022/09/25 06:53:11;;;;;;;6.03;3.10;;;;;;;11.24;80.87;100543.27;1757973;81;21187;-55
2022/09/25 06:56:18;;;;;;;5.62;3.47;;;;;;;11.34;80.89;100552.16;1768442;81;21246;-55
2022/09/25 06:59:24;;;;;;;5.75;3.35;;;;;;;11.45;80.88;100547.66;1768465;81;21199;-56
2022/09/25 07:05:59;;;;;;;3.90;3.00;;;;;;;11.63;80.83;100544.20;1767975;80;21185;-58
2022/09/25 07:09:05;;;;;;;3.35;2.67;;;;;;;11.73;80.79;100552.20;1757836;81;21182;-58
2022/09/25 07:12:11;;;;;;;4.40;2.87;;;;;;;11.82;80.82;100547.01;1767744;81;21328;-57
2022/09/25 07:15:18;;;;;;;4.62;2.58;;;;;;;11.91;80.78;100553.64;1768170;81;21343;-56
2022/09/25 07:18:25;;;;;;;4.83;2.92;;;;;;;12.02;80.77;100543.62;1767932;81;21897;-55
2022/09/25 07:21:32;;;;;;;4.17;2.50;;;;;;;12.13;80.77;100547.83;1768313;81;21722;-57
2022/09/25 07:24:37;;;;;;;6.35;2.70;;;;;;;12.24;80.75;100545.20;1767041;79;21240;-56
2022/09/25 07:27:46;;;;;;;3.87;2.45;;;;;;;12.34;80.70;100549.91;1745802;81;21571;-55
2022/09/25 07:30:53;;;;;;;4.75;2.70;;;;;;;12.42;80.64;100553.97;1761768;80;21256;-61
2022/09/25 07:34:01;;;;;;;4.33;2.55;;;;;;;12.50;80.60;100550.66;1744377;80;21220;-57
2022/09/25 07:37:08;;;;;;;3.83;2.62;;;;;;;12.56;80.53;100545.79;1743036;81;21232;-60
2022/09/25 07:40:15;;;;;;;3.30;2.47;;;;;;;12.64;80.53;100553.96;1743517;82;21217;-57
2022/09/25 07:43:23;;;;;;;4.33;2.50;;;;;;;12.72;80.48;100537.41;1743506;81;21730;-58
2022/09/25 07:46:32;;;;;;;4.62;2.37;;;;;;;12.80;80.43;100544.20;1743737;81;21173;-58
2022/09/25 07:49:40;;;;;;;3.50;2.70;;;;;;;12.87;80.37;100558.92;1753763;81;21618;-55
2022/09/25 07:52:47;;;;;;;3.95;2.15;;;;;;;12.92;80.32;100548.19;1743027;81;21335;-56
2022/09/25 07:55:53;;;;;;;8.03;2.70;;;;;;;13.00;80.27;100544.53;1742939;82;21193;-56
2022/09/25 07:59:02;;;;;;;3.15;2.27;;;;;;;13.06;80.22;100559.80;1743819;80;21236;-59
2022/09/25 08:02:08;;;;;;;3.40;2.40;;;;;;;13.12;80.12;100543.91;1742648;81;21818;-55
2022/09/25 08:05:17;;;;;;;4.10;2.17;;;;;;;13.18;80.07;100549.16;1747866;81;21173;-58
2022/09/25 08:08:24;;;;;;;3.25;2.17;;;;;;;13.25;80.02;100548.25;1743344;81;21260;-56
2022/09/25 08:11:30;;;;;;;4.75;2.20;;;;;;;13.31;79.97;100555.73;1744192;81;21764;-57
2022/09/25 08:14:40;;;;;;;5.08;2.72;;;;;;;13.38;79.90;100557.20;1743639;82;21776;-57
2022/09/25 08:17:45;;;;;;;7.78;2.17;;;;;;;13.44;79.87;100555.93;1764377;81;21244;-58
2022/09/25 08:20:53;;;;;;;6.90;2.10;;;;;;;13.49;79.80;100549.86;1772694;80;21197;-57
2022/09/25 08:24:00;;;;;;;3.15;2.12;;;;;;;13.57;79.76;100550.27;1740141;81;21845;-58
2022/09/25 08:27:03;;;;;;;3.77;2.02;;;;;;;13.58;79.61;100549.20;1736836;82;21331;-55
2022/09/25 08:29:57;;;;;;;2.70;1.90;;;;;;;13.65;79.60;100548.79;1737462;82;21205;-56
2022/09/25 08:32:44;;;;;;;6.33;2.85;;;;;;;13.74;79.60;100551.25;1737487;82;21241;-56
2022/09/25 08:35:39;;;;;;;3.47;2.30;;;;;;;13.86;79.60;100550.23;1737142;82;21374;-57
2022/09/25 08:38:29;;;;;;;2.83;1.90;;;;;;;13.94;79.51;100546.00;1736758;82;21821;-58
2022/09/25 08:41:50;;;;;;;3.87;2.00;;;;;;;13.96;79.34;100549.39;1737066;82;21359;-57
2022/09/25 08:51:53;;;;;;;5.10;2.02;;;;;;;14.09;79.17;100537.16;1737202;82;21197;-57
2022/09/25 08:54:59;;;;;;;3.72;2.10;;;;;;;14.30;79.27;100542.73;1736614;82;21205;-55
2022/09/25 08:58:06;;;;;;;3.37;2.30;;;;;;;14.48;79.23;100541.73;1737329;82;21177;-56
2022/09/25 09:01:16;;;;;;;6.08;2.52;;;;;;;14.64;79.21;100560.75;1737560;82;21224;-56
2022/09/25 09:04:41;;;;;;;3.65;2.00;;;;;;;14.76;78.97;100537.14;1737475;82;21209;-58
2022/09/25 09:07:53;;;;;;;2.72;1.90;;;;;;;14.94;78.95;100547.99;1741518;80;21754;-57
2022/09/25 09:11:05;;;;;;;5.37;2.80;;;;;;;15.12;78.79;100539.22;1738019;82;21169;-56
2022/09/25 09:14:24;;;;;;;2.70;2.00;;;;;;;15.24;78.62;100534.01;1736340;82;21217;-55
2022/09/25 09:17:35;;;;;;;4.15;1.77;;;;;;;15.31;78.41;100540.40;1736722;82;21369;-58
2022/09/25 09:20:51;;;;;;;4.17;1.80;;;;;;;15.37;78.23;100540.45;1736897;82;21247;-57
2022/09/25 09:24:20;;;;;;;5.60;1.90;;;;;;;15.33;77.83;100533.64;1736843;82;21209;-56
2022/09/25 09:27:39;;;;;;;2.62;1.87;;;;;;;15.29;77.69;100532.84;1765799;80;21700;-57
2022/09/25 09:30:56;;;;;;;2.05;1.70;;;;;;;15.33;77.69;100527.27;1775139;80;21328;-57
2022/09/25 09:34:34;;;;;;;7.12;3.85;;;;;;;15.44;77.76;100546.04;1775465;80;21215;-60
2022/09/25 09:38:15;;;;;;;3.12;1.80;;;;;;;15.59;77.71;100530.19;1776940;79;21752;-56
2022/09/25 09:41:39;;;;;;;3.35;1.57;;;;;;;15.72;77.63;100535.78;1776094;81;21967;-57
2022/09/25 09:45:21;;;;;;;3.65;2.00;;;;;;;15.89;77.55;100531.08;1776300;80;21347;-57
2022/09/25 09:48:36;;;;;;;3.42;2.17;;;;;;;15.98;77.35;100525.69;1776137;80;21229;-58
2022/09/25 09:52:19;;;;;;;4.35;2.12;;;;;;;15.90;76.95;100538.30;1773236;80;21208;-57
2022/09/25 09:55:48;;;;;;;2.40;2.15;;;;;;;15.76;76.71;100522.73;1750324;81;21563;-59
2022/09/25 09:59:08;;;;;;;5.37;2.05;;;;;;;15.79;76.79;100516.80;1763899;80;21213;-55
2022/09/25 10:02:46;;;;;;;2.22;1.82;;;;;;;15.87;76.75;100529.05;1776237;80;21209;-58
2022/09/25 10:06:00;;;;;;;2.98;1.85;;;;;;;15.89;76.61;100532.46;1776488;80;21197;-58
2022/09/25 10:09:07;;;;;;;2.60;1.97;;;;;;;15.90;76.58;100528.63;1776647;80;22036;-57
2022/09/25 10:12:38;;;;;;;3.77;1.75;;;;;;;16.02;76.56;100528.89;1776831;81;21304;-57
2022/09/25 10:15:51;;;;;;;3.15;2.35;;;;;;;16.07;76.37;100518.08;1776096;80;21172;-57
2022/09/25 10:19:29;;;;;;;4.30;2.20;;;;;;;16.00;76.04;100518.06;1777334;80;21379;-57
2022/09/25 10:22:39;;;;;;;4.58;2.15;;;;;;;15.82;75.76;100528.84;1759811;79;21244;-56
2022/09/25 10:25:47;;;;;;;2.45;1.82;;;;;;;15.74;75.90;100522.12;1776087;80;21185;-55
2022/09/25 10:28:58;;;;;;;4.15;2.42;;;;;;;15.86;76.00;100527.36;1779914;80;21197;-52
2022/09/25 10:32:07;;;;;;;5.12;2.05;;;;;;;16.02;76.10;100521.47;1779756;80;21181;-57
2022/09/25 10:35:33;;;;;;;3.70;2.15;;;;;;;16.18;76.09;100533.53;1779703;80;21253;-53
2022/09/25 10:38:52;;;;;;;3.60;1.85;;;;;;;16.29;75.92;100534.81;1779654;80;21169;-57
2022/09/25 10:42:00;;;;;;;4.53;1.70;;;;;;;16.27;75.62;100536.41;1779323;80;21193;-51
2022/09/25 10:45:05;;;;;;;3.22;2.05;;;;;;;16.28;75.53;100533.13;1779563;80;21201;-52
2022/09/25 10:51:19;;;;;;;4.65;2.08;;;;;;;16.26;75.13;100536.63;1858828;76;27924;-56
2022/09/25 10:54:25;;;;;;;5.30;2.30;;;;;;;16.17;74.98;100532.36;1779625;79;21260;-55
2022/09/25 10:57:45;;;;;;;3.22;2.17;;;;;;;16.18;75.06;100523.00;1765733;81;21185;-54
2022/09/25 11:01:12;;;;;;;3.45;2.33;;;;;;;16.39;75.36;100515.38;1765592;81;21260;-54
2022/09/25 11:04:36;;;;;;;2.47;1.90;;;;;;;16.73;75.57;100521.86;1764648;80;21264;-56
2022/09/25 11:07:43;;;;;;;3.08;2.30;;;;;;;17.01;75.53;100516.95;1757845;81;21473;-58
2022/09/25 11:11:12;;;;;;;5.90;2.22;;;;;;;17.14;75.20;100533.54;1757182;81;21190;-56
2022/09/25 11:14:39;;;;;;;3.50;1.87;;;;;;;17.11;74.80;100533.97;1757569;80;21198;-57
2022/09/25 11:17:48;;;;;;;3.25;1.87;;;;;;;17.08;74.68;100533.84;1751124;81;21166;-57
2022/09/25 11:20:55;;;;;;;3.17;2.17;;;;;;;17.25;74.63;100546.72;1765280;81;21374;-58
2022/09/25 11:24:26;;;;;;;4.65;1.90;;;;;;;17.32;74.40;100557.23;1727074;81;21189;-56
2022/09/25 11:27:50;;;;;;;5.17;2.20;;;;;;;17.25;74.01;100536.48;1757698;81;21248;-57
2022/09/25 11:31:08;;;;;;;2.85;1.80;;;;;;;17.12;73.78;100532.89;1765132;81;21209;-59
2022/09/25 11:34:35;;;;;;;3.65;1.85;;;;;;;17.00;73.66;100534.62;1765214;80;21248;-57
2022/09/25 11:38:08;;;;;;;2.35;1.80;;;;;;;17.07;73.81;100535.45;1757858;81;21185;-56
2022/09/25 11:41:21;;;;;;;7.67;2.20;;;;;;;17.04;73.54;100542.80;1756099;81;21190;-58
2022/09/25 11:44:34;;;;;;;6.30;2.37;;;;;;;16.87;73.29;100547.06;1757406;80;21371;-56
2022/09/25 11:48:01;;;;;;;2.80;1.70;;;;;;;16.74;73.22;100549.81;1765490;81;21694;-57
2022/09/25 11:51:38;;;;;;;2.37;1.92;;;;;;;16.87;73.45;100544.30;1767451;78;21205;-57
2022/09/25 11:55:04;;;;;;;2.75;1.50;;;;;;;17.08;73.52;100537.13;1693941;83;21530;-57
2022/09/25 11:58:34;;;;;;;2.70;1.50;;;;;;;17.04;73.10;100540.89;1770050;80;21240;-57
2022/09/25 12:01:48;;;;;;;4.47;1.80;;;;;;;16.91;72.72;100538.12;1765348;80;21189;-57
2022/09/25 12:05:09;;;;;;;2.75;1.85;;;;;;;16.74;72.55;100549.81;1765383;80;21241;-57
2022/09/25 12:08:59;;;;;;;4.47;2.10;;;;;;;16.67;72.55;100539.27;1765065;80;21201;-57
2022/09/25 12:12:23;;;;;;;3.27;2.17;;;;;;;16.69;72.62;100539.39;1765391;81;21220;-58
2022/09/25 12:15:53;;;;;;;13.40;6.75;;;;;;;16.56;72.34;100533.84;1765261;81;21188;-58
2022/09/25 12:19:09;;;;;;;9.08;5.37;;;;;;;16.44;72.22;100534.12;1764971;80;21733;-56
2022/09/25 12:22:39;;;;;;;8.18;4.50;;;;;;;16.37;72.14;100534.11;1759373;81;21197;-57
2022/09/25 12:26:26;;;;;;;3.95;2.65;;;;;;;16.53;72.40;100523.73;1764279;81;21177;-57
2022/09/25 12:30:20;;;;;;;11.50;4.67;;;;;;;16.81;72.57;100534.09;1762821;81;21240;-57
2022/09/25 12:33:33;;;;;;;5.35;2.67;;;;;;;17.09;72.60;100531.94;1763171;81;21268;-58
2022/09/25 12:37:22;;;;;;;2.95;1.90;;;;;;;17.32;72.47;100526.78;1763465;81;21240;-58
2022/09/25 12:40:46;;;;;;;4.05;1.90;;;;;;;17.41;72.15;100521.36;1707024;82;21362;-57
2022/09/25 12:44:03;;;;;;;5.05;2.40;;;;;;;17.33;71.70;100527.12;1740708;81;21205;-57
2022/09/25 12:47:25;;;;;;;3.62;1.65;;;;;;;17.29;71.55;100539.67;1738744;81;21173;-57
2022/09/25 12:50:36;;;;;;;2.60;1.80;;;;;;;17.31;71.45;100538.41;1736318;82;21862;-57
2022/09/25 12:53:49;;;;;;;3.95;1.70;;;;;;;17.28;71.21;100532.45;1697255;84;21719;-56
2022/09/25 12:57:05;;;;;;;4.37;1.52;;;;;;;17.17;70.96;100534.48;1681256;84;21204;-57
2022/09/25 13:00:27;;;;;;;2.87;1.65;;;;;;;16.99;70.64;100529.61;1698808;84;21285;-56
2022/09/25 13:03:45;;;;;;;3.40;2.27;;;;;;;16.82;70.49;100526.10;1699177;83;22111;-57
2022/09/25 13:07:08;;;;;;;3.45;2.47;;;;;;;16.69;70.40;100533.86;1698689;84;21594;-58
2022/09/25 13:10:40;;;;;;;3.17;2.15;;;;;;;16.61;70.36;100529.92;1698720;84;21245;-58
2022/09/25 13:13:57;;;;;;;4.97;3.45;;;;;;;16.63;70.35;100537.48;1698299;83;21229;-57
2022/09/25 13:17:02;;;;;;;3.22;2.20;;;;;;;16.63;70.29;100527.80;1698253;83;21198;-57
2022/09/25 13:20:35;;;;;;;3.80;2.20;;;;;;;16.57;70.03;100541.61;1702794;83;21238;-56
2022/09/25 13:23:42;;;;;;;2.12;1.55;;;;;;;16.47;69.88;100535.64;1705957;83;21297;-56
2022/09/25 13:26:57;;;;;;;3.35;1.80;;;;;;;16.51;69.97;100536.94;1703024;83;21815;-57
2022/09/25 13:30:07;;;;;;;2.58;1.80;;;;;;;16.65;69.97;100531.73;1698339;84;21194;-58
2022/09/25 13:33:15;;;;;;;2.10;1.30;;;;;;;16.83;69.96;100536.95;1698172;84;21806;-56
2022/09/25 13:36:31;;;;;;;1.90;1.50;;;;;;;16.93;69.71;100539.29;1699047;84;21222;-56
2022/09/25 13:43:37;;;;;;;1.92;1.45;;;;;;;16.73;69.14;100537.06;1698330;84;21803;-57
2022/09/25 13:46:41;;;;;;;2.08;1.40;;;;;;;16.58;68.98;100541.40;1699071;83;21580;-56
2022/09/25 13:49:57;;;;;;;1.82;1.37;;;;;;;16.48;68.89;100538.19;1698664;84;21736;-58
2022/09/25 13:53:20;;;;;;;2.58;1.90;;;;;;;16.43;68.85;100544.84;1710184;80;21237;-58
2022/09/25 13:56:33;;;;;;;4.60;2.40;;;;;;;16.41;68.75;100553.34;1752674;81;21234;-57
2022/09/25 13:59:44;;;;;;;3.87;2.00;;;;;;;16.37;68.60;100542.91;1726071;82;21225;-57
2022/09/25 14:02:51;;;;;;;3.17;2.22;;;;;;;16.30;68.45;100548.94;1743638;80;21233;-57
2022/09/25 14:05:58;;;;;;;5.58;2.37;;;;;;;16.19;68.33;100558.70;1756266;81;21195;-57
2022/09/25 14:09:07;;;;;;;5.95;3.70;;;;;;;16.08;68.25;100551.02;1726454;82;21280;-57
2022/09/25 14:12:27;;;;;;;3.45;2.37;;;;;;;16.00;68.22;100555.34;1711905;82;21213;-57
2022/09/25 14:15:43;;;;;;;6.92;1.90;;;;;;;15.93;68.10;100550.34;1725993;83;21378;-57
2022/09/25 14:18:52;;;;;;;2.55;1.75;;;;;;;15.85;68.02;100549.13;1726408;82;21245;-58
2022/09/25 14:22:01;;;;;;;2.05;1.67;;;;;;;15.80;67.96;100551.66;1726473;83;21269;-59
2022/09/25 14:25:07;;;;;;;2.42;1.72;;;;;;;15.75;67.91;100543.13;1742683;81;21206;-57
2022/09/25 14:28:30;;;;;;;3.02;1.75;;;;;;;15.74;67.86;100548.86;1755254;80;21221;-58
2022/09/25 14:31:42;;;;;;;2.92;1.72;;;;;;;15.72;67.77;100545.44;1756318;81;21216;-58
2022/09/25 14:35:05;;;;;;;3.27;1.60;;;;;;;15.73;67.74;100552.14;1726018;82;21300;-58
2022/09/25 14:38:25;;;;;;;2.67;1.70;;;;;;;15.72;67.68;100547.69;1727108;82;21920;-57
2022/09/25 14:41:47;;;;;;;3.72;1.42;;;;;;;15.71;67.55;100550.13;1751481;81;21527;-57
2022/09/25 14:45:21;;;;;;;3.40;1.92;;;;;;;15.65;67.40;100546.78;1752654;79;21770;-57
2022/09/25 14:48:39;;;;;;;2.58;1.60;;;;;;;15.55;67.29;100555.98;1754958;80;21189;-57
2022/09/25 14:51:50;;;;;;;3.25;1.87;;;;;;;15.46;67.23;100556.35;1754239;81;21814;-58
2022/09/25 14:54:59;;;;;;;2.60;1.72;;;;;;;15.37;67.13;100555.62;1731696;80;21725;-58
2022/09/25 14:58:04;;;;;;;4.65;2.02;;;;;;;15.29;67.04;100555.78;1733599;81;21169;-57
2022/09/25 15:01:36;;;;;;;4.28;2.30;;;;;;;15.21;66.99;100555.93;1733375;82;21173;-58
2022/09/25 15:04:42;;;;;;;4.10;2.12;;;;;;;15.17;66.92;100554.64;1733187;81;21774;-57
2022/09/25 15:07:49;;;;;;;4.03;1.87;;;;;;;15.10;66.83;100559.76;1732991;82;21253;-58
2022/09/25 15:10:55;;;;;;;3.22;1.80;;;;;;;15.01;66.75;100568.17;1733926;82;21201;-59
2022/09/25 15:14:01;;;;;;;3.70;2.40;;;;;;;14.92;66.70;100567.17;1733388;81;21260;-59
2022/09/25 15:17:23;;;;;;;3.62;2.45;;;;;;;14.82;66.64;100559.77;1757167;81;21201;-58
2022/09/25 15:20:29;;;;;;;3.20;2.20;;;;;;;14.73;66.57;100570.61;1718107;82;21184;-58
2022/09/25 15:23:36;;;;;;;4.10;2.08;;;;;;;14.63;66.50;100572.32;1733815;82;21733;-57
2022/09/25 15:26:46;;;;;;;2.83;2.20;;;;;;;14.56;66.48;100570.02;1733750;82;21334;-58